sensor_id;sensor_type;location;lat;lon;timestamp;pressure;altitude;pressure_sealevel;temperature;humidity
37238;BME280;23129;49.662;8.448;2023-10-08T00:01:30;101466.69;;;16.56;100.00
37238;BME280;23129;49.662;8.448;2023-10-08T00:04:01;101456.19;;;16.53;100.00
37238;BME280;23129;49.662;8.448;2023-10-08T00:06:32;101454.47;;;16.52;100.00
37238;BME280;23129;49.662;8.448;2023-10-08T00:09:02;101466.91;;;16.50;100.00
37238;BME280;23129;49.662;8.448;2023-10-08T00:11:35;101462.59;;;16.47;100.00
37238;BME280;23129;49.662;8.448;2023-10-08T00:14:05;101462.66;;;16.46;100.00
37238;BME280;23129;49.662;8.448;2023-10-08T00:16:38;101452.97;;;16.44;100.00
37238;BME280;23129;49.662;8.448;2023-10-08T00:19:07;101468.84;;;16.44;100.00
37238;BME280;23129;49.662;8.448;2023-10-08T00:21:39;101462.81;;;16.41;100.00
37238;BME280;23129;49.662;8.448;2023-10-08T00:24:13;101460.22;;;16.39;100.00
37238;BME280;23129;49.662;8.448;2023-10-08T00:26:42;101456.75;;;16.37;100.00
37238;BME280;23129;49.662;8.448;2023-10-08T00:29:11;101452.50;;;16.33;100.00
37238;BME280;23129;49.662;8.448;2023-10-08T00:31:49;101455.22;;;16.30;100.00
37238;BME280;23129;49.662;8.448;2023-10-08T00:34:18;101460.63;;;16.27;100.00
37238;BME280;23129;49.662;8.448;2023-10-08T00:36:48;101460.69;;;16.26;100.00
37238;BME280;23129;49.662;8.448;2023-10-08T00:39:19;101466.03;;;16.24;100.00
37238;BME280;23129;49.662;8.448;2023-10-08T00:41:52;101469.63;;;16.23;100.00
37238;BME280;23129;49.662;8.448;2023-10-08T00:44:26;101475.00;;;16.20;100.00
37238;BME280;23129;49.662;8.448;2023-10-08T00:46:59;101466.22;;;16.19;100.00
37238;BME280;23129;49.662;8.448;2023-10-08T00:49:32;101475.97;;;16.17;100.00
37238;BME280;23129;49.662;8.448;2023-10-08T00:52:15;101476.84;;;16.18;100.00
37238;BME280;23129;49.662;8.448;2023-10-08T00:54:59;101472.44;;;16.18;100.00
37238;BME280;23129;49.662;8.448;2023-10-08T00:57:42;101476.84;;;16.18;100.00
37238;BME280;23129;49.662;8.448;2023-10-08T01:00:15;101467.19;;;16.17;100.00
37238;BME280;23129;49.662;8.448;2023-10-08T01:02:50;101459.25;;;16.17;100.00
37238;BME280;23129;49.662;8.448;2023-10-08T01:05:29;101458.41;;;16.15;100.00
37238;BME280;23129;49.662;8.448;2023-10-08T01:08:16;101456.81;;;16.11;100.00
37238;BME280;23129;49.662;8.448;2023-10-08T01:10:52;101455.97;;;16.09;100.00
37238;BME280;23129;49.662;8.448;2023-10-08T01:13:31;101461.28;;;16.09;100.00
37238;BME280;23129;49.662;8.448;2023-10-08T01:16:13;101462.22;;;16.08;100.00
37238;BME280;23129;49.662;8.448;2023-10-08T01:18:42;101447.25;;;16.07;100.00
37238;BME280;23129;49.662;8.448;2023-10-08T01:21:18;101448.97;;;16.08;100.00
37238;BME280;23129;49.662;8.448;2023-10-08T01:24:08;101462.13;;;16.09;100.00
37238;BME280;23129;49.662;8.448;2023-10-08T01:26:44;101459.56;;;16.08;100.00
37238;BME280;23129;49.662;8.448;2023-10-08T01:29:13;101445.47;;;16.07;100.00
37238;BME280;23129;49.662;8.448;2023-10-08T01:31:48;101447.34;;;16.04;100.00
37238;BME280;23129;49.662;8.448;2023-10-08T01:34:17;101450.03;;;16.02;100.00
37238;BME280;23129;49.662;8.448;2023-10-08T01:36:54;101444.81;;;16.01;100.00
37238;BME280;23129;49.662;8.448;2023-10-08T01:39:28;101441.47;;;15.95;100.00
37238;BME280;23129;49.662;8.448;2023-10-08T01:41:59;101441.59;;;15.91;100.00
37238;BME280;23129;49.662;8.448;2023-10-08T01:44:28;101437.28;;;15.88;100.00
37238;BME280;23129;49.662;8.448;2023-10-08T01:46:57;101439.22;;;15.83;100.00
37238;BME280;23129;49.662;8.448;2023-10-08T01:49:29;101437.59;;;15.79;100.00
37238;BME280;23129;49.662;8.448;2023-10-08T01:52:00;101443.91;;;15.75;100.00
37238;BME280;23129;49.662;8.448;2023-10-08T01:54:36;101434.34;;;15.71;100.00
37238;BME280;23129;49.662;8.448;2023-10-08T01:57:05;101436.06;;;15.72;100.00
37238;BME280;23129;49.662;8.448;2023-10-08T01:59:37;101431.53;;;15.75;100.00
37238;BME280;23129;49.662;8.448;2023-10-08T02:02:07;101429.66;;;15.79;100.00
37238;BME280;23129;49.662;8.448;2023-10-08T02:04:37;101427.00;;;15.79;100.00
37238;BME280;23129;49.662;8.448;2023-10-08T02:07:05;101432.28;;;15.79;100.00
37238;BME280;23129;49.662;8.448;2023-10-08T02:09:38;101434.03;;;15.80;100.00
37238;BME280;23129;49.662;8.448;2023-10-08T02:12:07;101434.03;;;15.80;100.00
37238;BME280;23129;49.662;8.448;2023-10-08T02:14:36;101437.59;;;15.79;100.00
37238;BME280;23129;49.662;8.448;2023-10-08T02:17:09;101431.59;;;15.74;100.00
37238;BME280;23129;49.662;8.448;2023-10-08T02:19:38;101436.06;;;15.72;100.00
37238;BME280;23129;49.662;8.448;2023-10-08T02:22:09;101437.97;;;15.67;100.00
37238;BME280;23129;49.662;8.448;2023-10-08T02:24:39;101442.56;;;15.62;100.00
37238;BME280;23129;49.662;8.448;2023-10-08T02:27:10;101449.78;;;15.57;100.00
37238;BME280;23129;49.662;8.448;2023-10-08T02:29:42;101462.28;;;15.51;100.00
37238;BME280;23129;49.662;8.448;2023-10-08T02:32:11;101465.09;;;15.45;100.00
37238;BME280;23129;49.662;8.448;2023-10-08T02:34:41;101459.19;;;15.37;100.00
37238;BME280;23129;49.662;8.448;2023-10-08T02:37:09;101465.59;;;15.30;100.00
37238;BME280;23129;49.662;8.448;2023-10-08T02:39:41;101461.34;;;15.24;100.00
37238;BME280;23129;49.662;8.448;2023-10-08T02:42:12;101454.47;;;15.19;100.00
37238;BME280;23129;49.662;8.448;2023-10-08T02:44:41;101450.22;;;15.15;100.00
37238;BME280;23129;49.662;8.448;2023-10-08T02:47:11;101455.50;;;15.15;100.00
37238;BME280;23129;49.662;8.448;2023-10-08T02:49:41;101454.53;;;15.17;100.00
37238;BME280;23129;49.662;8.448;2023-10-08T02:52:09;101450.03;;;15.21;100.00
37238;BME280;23129;49.662;8.448;2023-10-08T02:54:42;101455.16;;;15.25;100.00
37238;BME280;23129;49.662;8.448;2023-10-08T02:57:10;101452.38;;;15.30;100.00
37238;BME280;23129;49.662;8.448;2023-10-08T02:59:42;101445.31;;;15.30;100.00
37238;BME280;23129;49.662;8.448;2023-10-08T03:02:14;101444.44;;;15.30;100.00
37238;BME280;23129;49.662;8.448;2023-10-08T03:04:47;101441.06;;;15.25;100.00
37238;BME280;23129;49.662;8.448;2023-10-08T03:07:19;101428.88;;;15.21;100.00
37238;BME280;23129;49.662;8.448;2023-10-08T03:09:53;101426.38;;;15.16;100.00
37238;BME280;23129;49.662;8.448;2023-10-08T03:12:32;101425.69;;;15.10;100.00
37238;BME280;23129;49.662;8.448;2023-10-08T03:15:03;101427.59;;;15.04;100.00
37238;BME280;23129;49.662;8.448;2023-10-08T03:17:41;101419.00;;;14.98;100.00
37238;BME280;23129;49.662;8.448;2023-10-08T03:20:17;101414.84;;;14.91;100.00
37238;BME280;23129;49.662;8.448;2023-10-08T03:23:08;101415.13;;;14.81;100.00
37238;BME280;23129;49.662;8.448;2023-10-08T03:25:42;101419.72;;;14.75;100.00
37238;BME280;23129;49.662;8.448;2023-10-08T03:28:13;101432.28;;;14.67;100.00
37238;BME280;23129;49.662;8.448;2023-10-08T03:30:44;101437.66;;;14.64;100.00
37238;BME280;23129;49.662;8.448;2023-10-08T03:33:20;101446.53;;;14.59;100.00
37238;BME280;23129;49.662;8.448;2023-10-08T03:35:52;101445.78;;;14.56;100.00
37238;BME280;23129;49.662;8.448;2023-10-08T03:38:22;101445.00;;;14.52;100.00
37238;BME280;23129;49.662;8.448;2023-10-08T03:41:07;101450.34;;;14.49;100.00
37238;BME280;23129;49.662;8.448;2023-10-08T03:43:43;101449.50;;;14.47;100.00
37238;BME280;23129;49.662;8.448;2023-10-08T03:46:20;101458.34;;;14.46;100.00
37238;BME280;23129;49.662;8.448;2023-10-08T03:48:51;101455.78;;;14.43;100.00
37238;BME280;23129;49.662;8.448;2023-10-08T03:51:21;101462.88;;;14.41;100.00
37238;BME280;23129;49.662;8.448;2023-10-08T03:53:54;101469.09;;;14.38;100.00
37238;BME280;23129;49.662;8.448;2023-10-08T03:56:29;101470.94;;;14.36;100.00
37238;BME280;23129;49.662;8.448;2023-10-08T03:58:59;101469.25;;;14.32;100.00
37238;BME280;23129;49.662;8.448;2023-10-08T04:01:31;101478.16;;;14.30;100.00
37238;BME280;23129;49.662;8.448;2023-10-08T04:04:01;101481.72;;;14.27;100.00
37238;BME280;23129;49.662;8.448;2023-10-08T04:06:30;101485.34;;;14.23;100.00
37238;BME280;23129;49.662;8.448;2023-10-08T04:09:05;101480.22;;;14.17;100.00
37238;BME280;23129;49.662;8.448;2023-10-08T04:11:45;101479.53;;;14.10;100.00
37238;BME280;23129;49.662;8.448;2023-10-08T04:14:24;101470.84;;;14.05;100.00
37238;BME280;23129;49.662;8.448;2023-10-08T04:16:53;101468.38;;;13.99;100.00
37238;BME280;23129;49.662;8.448;2023-10-08T04:19:22;101474.66;;;13.95;100.00
37238;BME280;23129;49.662;8.448;2023-10-08T04:21:55;101476.53;;;13.90;100.00
37238;BME280;23129;49.662;8.448;2023-10-08T04:24:25;101489.78;;;13.87;100.00
37238;BME280;23129;49.662;8.448;2023-10-08T04:27:03;101489.03;;;13.82;100.00
37238;BME280;23129;49.662;8.448;2023-10-08T04:29:36;101489.19;;;13.76;100.00
37238;BME280;23129;49.662;8.448;2023-10-08T04:32:05;101488.31;;;13.75;100.00
37238;BME280;23129;49.662;8.448;2023-10-08T04:34:40;101487.69;;;13.65;100.00
37238;BME280;23129;49.662;8.448;2023-10-08T04:37:14;101490.31;;;13.65;100.00
37238;BME280;23129;49.662;8.448;2023-10-08T04:39:47;101488.66;;;13.61;100.00
37238;BME280;23129;49.662;8.448;2023-10-08T04:42:26;101491.38;;;13.58;100.00
37238;BME280;23129;49.662;8.448;2023-10-08T04:44:55;101489.69;;;13.54;100.00
37238;BME280;23129;49.662;8.448;2023-10-08T04:47:27;101481.06;;;13.49;100.00
37238;BME280;23129;49.662;8.448;2023-10-08T04:50:00;101465.34;;;13.43;100.00
37238;BME280;23129;49.662;8.448;2023-10-08T04:52:32;101467.19;;;13.41;100.00
37238;BME280;23129;49.662;8.448;2023-10-08T04:55:13;101467.19;;;13.39;100.00
37238;BME280;23129;49.662;8.448;2023-10-08T04:57:49;101463.78;;;13.36;100.00
37238;BME280;23129;49.662;8.448;2023-10-08T05:00:17;101458.50;;;13.36;100.00
37238;BME280;23129;49.662;8.448;2023-10-08T05:03:08;101462.84;;;13.37;100.00
37238;BME280;23129;49.662;8.448;2023-10-08T05:05:42;101458.44;;;13.39;100.00
37238;BME280;23129;49.662;8.448;2023-10-08T05:08:34;101456.63;;;13.41;100.00
37238;BME280;23129;49.662;8.448;2023-10-08T05:11:15;101456.56;;;13.44;100.00
37238;BME280;23129;49.662;8.448;2023-10-08T05:13:53;101466.16;;;13.46;100.00
37238;BME280;23129;49.662;8.448;2023-10-08T05:16:33;101478.41;;;13.49;100.00
37238;BME280;23129;49.662;8.448;2023-10-08T05:19:11;101481.84;;;13.53;100.00
37238;BME280;23129;49.662;8.448;2023-10-08T05:21:53;101483.53;;;13.55;100.00
37238;BME280;23129;49.662;8.448;2023-10-08T05:24:45;101482.63;;;13.56;100.00
37238;BME280;23129;49.662;8.448;2023-10-08T05:27:35;101470.28;;;13.58;100.00
37238;BME280;23129;49.662;8.448;2023-10-08T05:30:24;101475.50;;;13.60;100.00
37238;BME280;23129;49.662;8.448;2023-10-08T05:33:09;101473.72;;;13.60;100.00
37238;BME280;23129;49.662;8.448;2023-10-08T05:35:52;101486.03;;;13.61;100.00
37238;BME280;23129;49.662;8.448;2023-10-08T05:38:37;101477.22;;;13.62;100.00
37238;BME280;23129;49.662;8.448;2023-10-08T05:41:17;101485.06;;;13.64;100.00
37238;BME280;23129;49.662;8.448;2023-10-08T05:43:58;101481.56;;;13.63;100.00
37238;BME280;23129;49.662;8.448;2023-10-08T05:46:43;101480.69;;;13.64;100.00
37238;BME280;23129;49.662;8.448;2023-10-08T05:49:16;101489.47;;;13.63;100.00
37238;BME280;23129;49.662;8.448;2023-10-08T05:52:05;101482.47;;;13.62;100.00
37238;BME280;23129;49.662;8.448;2023-10-08T05:54:52;101486.84;;;13.63;100.00
37238;BME280;23129;49.662;8.448;2023-10-08T05:57:41;101484.19;;;13.63;100.00
37238;BME280;23129;49.662;8.448;2023-10-08T06:00:19;101479.78;;;13.65;100.00
37238;BME280;23129;49.662;8.448;2023-10-08T06:03:07;101475.34;;;13.67;100.00
37238;BME280;23129;49.662;8.448;2023-10-08T06:05:39;101476.19;;;13.68;100.00
37238;BME280;23129;49.662;8.448;2023-10-08T06:08:30;101481.41;;;13.69;100.00
37238;BME280;23129;49.662;8.448;2023-10-08T06:11:17;101478.75;;;13.71;100.00
37238;BME280;23129;49.662;8.448;2023-10-08T06:14:05;101478.69;;;13.74;100.00
37238;BME280;23129;49.662;8.448;2023-10-08T06:16:42;101482.09;;;13.78;100.00
37238;BME280;23129;49.662;8.448;2023-10-08T06:19:13;101470.63;;;13.80;100.00
37238;BME280;23129;49.662;8.448;2023-10-08T06:21:42;101477.53;;;13.84;100.00
37238;BME280;23129;49.662;8.448;2023-10-08T06:24:12;101473.97;;;13.87;100.00
37238;BME280;23129;49.662;8.448;2023-10-08T06:26:44;101481.81;;;13.90;100.00
37238;BME280;23129;49.662;8.448;2023-10-08T06:29:16;101474.66;;;13.95;100.00
37238;BME280;23129;49.662;8.448;2023-10-08T06:31:56;101480.69;;;13.99;100.00
37238;BME280;23129;49.662;8.448;2023-10-08T06:34:27;101482.34;;;14.03;100.00
37238;BME280;23129;49.662;8.448;2023-10-08T06:36:57;101491.88;;;14.08;100.00
37238;BME280;23129;49.662;8.448;2023-10-08T06:39:27;101497.97;;;14.12;100.00
37238;BME280;23129;49.662;8.448;2023-10-08T06:42:15;101492.53;;;14.18;100.00
37238;BME280;23129;49.662;8.448;2023-10-08T06:44:45;101521.34;;;14.26;100.00
37238;BME280;23129;49.662;8.448;2023-10-08T06:47:16;101525.59;;;14.33;100.00
37238;BME280;23129;49.662;8.448;2023-10-08T06:49:47;101542.06;;;14.41;100.00
37238;BME280;23129;49.662;8.448;2023-10-08T06:52:16;101536.59;;;14.49;100.00
37238;BME280;23129;49.662;8.448;2023-10-08T06:54:46;101534.59;;;14.58;100.00
37238;BME280;23129;49.662;8.448;2023-10-08T06:57:15;101539.63;;;14.68;100.00
37238;BME280;23129;49.662;8.448;2023-10-08T06:59:47;101548.97;;;14.81;100.00
37238;BME280;23129;49.662;8.448;2023-10-08T07:02:18;101565.34;;;14.92;100.00
37238;BME280;23129;49.662;8.448;2023-10-08T07:04:48;101566.75;;;15.05;100.00
37238;BME280;23129;49.662;8.448;2023-10-08T07:07:19;101569.66;;;15.27;100.00
37238;BME280;23129;49.662;8.448;2023-10-08T07:09:48;101570.47;;;15.59;100.00
37238;BME280;23129;49.662;8.448;2023-10-08T07:12:19;101566.84;;;15.91;100.00
37238;BME280;23129;49.662;8.448;2023-10-08T07:14:52;101557.81;;;16.50;100.00
37238;BME280;23129;49.662;8.448;2023-10-08T07:17:21;101555.31;;;17.21;100.00
37238;BME280;23129;49.662;8.448;2023-10-08T07:19:56;101555.78;;;17.99;100.00
37238;BME280;23129;49.662;8.448;2023-10-08T07:22:25;101564.16;;;18.53;100.00
37238;BME280;23129;49.662;8.448;2023-10-08T07:24:56;101556.44;;;18.47;100.00
37238;BME280;23129;49.662;8.448;2023-10-08T07:27:26;101566.13;;;18.28;100.00
37238;BME280;23129;49.662;8.448;2023-10-08T07:30:00;101562.81;;;18.22;100.00
37238;BME280;23129;49.662;8.448;2023-10-08T07:32:37;101563.13;;;18.15;100.00
37238;BME280;23129;49.662;8.448;2023-10-08T07:35:08;101570.47;;;18.08;100.00
37238;BME280;23129;49.662;8.448;2023-10-08T07:37:51;101566.44;;;18.20;100.00
37238;BME280;23129;49.662;8.448;2023-10-08T07:40:21;101574.09;;;18.48;100.00
37238;BME280;23129;49.662;8.448;2023-10-08T07:42:56;101564.19;;;18.74;100.00
37238;BME280;23129;49.662;8.448;2023-10-08T07:45:25;101550.47;;;19.03;100.00
37238;BME280;23129;49.662;8.448;2023-10-08T07:47:53;101562.75;;;19.44;100.00
37238;BME280;23129;49.662;8.448;2023-10-08T07:50:24;101578.81;;;19.80;100.00
37238;BME280;23129;49.662;8.448;2023-10-08T07:52:56;101574.41;;;20.15;100.00
37238;BME280;23129;49.662;8.448;2023-10-08T07:55:25;101574.88;;;20.60;100.00
37238;BME280;23129;49.662;8.448;2023-10-08T07:57:53;101578.59;;;20.90;100.00
37238;BME280;23129;49.662;8.448;2023-10-08T08:00:22;101587.22;;;20.95;100.00
37238;BME280;23129;49.662;8.448;2023-10-08T08:02:53;101579.69;;;20.86;100.00
37238;BME280;23129;49.662;8.448;2023-10-08T08:05:24;101583.50;;;20.65;100.00
37238;BME280;23129;49.662;8.448;2023-10-08T08:07:53;101586.59;;;20.38;100.00
37238;BME280;23129;49.662;8.448;2023-10-08T08:10:24;101584.22;;;20.15;100.00
37238;BME280;23129;49.662;8.448;2023-10-08T08:12:53;101585.28;;;19.93;100.00
37238;BME280;23129;49.662;8.448;2023-10-08T08:15:24;101595.22;;;19.71;100.00
37238;BME280;23129;49.662;8.448;2023-10-08T08:17:56;101592.75;;;19.47;100.00
37238;BME280;23129;49.662;8.448;2023-10-08T08:20:26;101592.84;;;19.27;100.00
37238;BME280;23129;49.662;8.448;2023-10-08T08:23:06;101601.47;;;19.11;100.00
37238;BME280;23129;49.662;8.448;2023-10-08T08:25:38;101600.19;;;19.01;100.00
37238;BME280;23129;49.662;8.448;2023-10-08T08:28:13;101600.59;;;18.92;100.00
37238;BME280;23129;49.662;8.448;2023-10-08T08:30:47;101602.97;;;18.78;100.00
37238;BME280;23129;49.662;8.448;2023-10-08T08:33:20;101601.41;;;18.74;100.00
37238;BME280;23129;49.662;8.448;2023-10-08T08:36:02;101599.09;;;18.64;100.00
37238;BME280;23129;49.662;8.448;2023-10-08T08:38:33;101612.78;;;18.55;100.00
37238;BME280;23129;49.662;8.448;2023-10-08T08:41:02;101606.72;;;18.52;100.00
37238;BME280;23129;49.662;8.448;2023-10-08T08:43:34;101614.91;;;18.47;100.00
37238;BME280;23129;49.662;8.448;2023-10-08T08:46:04;101612.38;;;18.44;100.00
37238;BME280;23129;49.662;8.448;2023-10-08T08:48:34;101615.22;;;18.39;100.00
37238;BME280;23129;49.662;8.448;2023-10-08T08:51:07;101616.88;;;18.42;100.00
37238;BME280;23129;49.662;8.448;2023-10-08T08:53:37;101612.28;;;18.45;100.00
37238;BME280;23129;49.662;8.448;2023-10-08T08:56:07;101600.53;;;18.51;100.00
37238;BME280;23129;49.662;8.448;2023-10-08T08:58:38;101596.84;;;18.55;100.00
37238;BME280;23129;49.662;8.448;2023-10-08T09:01:11;101590.59;;;18.56;100.00
37238;BME280;23129;49.662;8.448;2023-10-08T09:03:41;101578.38;;;18.52;100.00
37238;BME280;23129;49.662;8.448;2023-10-08T09:06:11;101609.47;;;18.50;100.00
37238;BME280;23129;49.662;8.448;2023-10-08T09:08:40;101598.69;;;18.53;100.00
37238;BME280;23129;49.662;8.448;2023-10-08T09:11:17;101599.50;;;18.55;100.00
37238;BME280;23129;49.662;8.448;2023-10-08T09:13:46;101592.13;;;18.62;100.00
37238;BME280;23129;49.662;8.448;2023-10-08T09:16:15;101588.03;;;18.75;100.00
37238;BME280;23129;49.662;8.448;2023-10-08T09:18:46;101585.78;;;18.86;100.00
37238;BME280;23129;49.662;8.448;2023-10-08T09:21:18;101593.41;;;18.94;100.00
37238;BME280;23129;49.662;8.448;2023-10-08T09:23:51;101630.38;;;19.00;100.00
37238;BME280;23129;49.662;8.448;2023-10-08T09:26:24;101596.56;;;19.02;100.00
37238;BME280;23129;49.662;8.448;2023-10-08T09:28:54;101613.47;;;19.01;100.00
37238;BME280;23129;49.662;8.448;2023-10-08T09:31:24;101617.13;;;18.99;100.00
37238;BME280;23129;49.662;8.448;2023-10-08T09:33:54;101615.19;;;19.02;100.00
37238;BME280;23129;49.662;8.448;2023-10-08T09:36:25;101600.03;;;19.04;100.00
37238;BME280;23129;49.662;8.448;2023-10-08T09:39:01;101595.38;;;19.09;100.00
37238;BME280;23129;49.662;8.448;2023-10-08T09:41:34;101582.66;;;19.16;100.00
37238;BME280;23129;49.662;8.448;2023-10-08T09:44:06;101594.75;;;19.23;100.00
37238;BME280;23129;49.662;8.448;2023-10-08T09:46:41;101606.03;;;19.28;100.00
37238;BME280;23129;49.662;8.448;2023-10-08T09:49:13;101610.03;;;19.38;100.00
37238;BME280;23129;49.662;8.448;2023-10-08T09:51:45;101612.84;;;19.54;100.00
37238;BME280;23129;49.662;8.448;2023-10-08T09:54:20;101610.59;;;19.64;100.00
37238;BME280;23129;49.662;8.448;2023-10-08T09:56:50;101609.19;;;19.76;100.00
37238;BME280;23129;49.662;8.448;2023-10-08T09:59:20;101622.72;;;19.90;100.00
37238;BME280;23129;49.662;8.448;2023-10-08T10:01:50;101607.84;;;20.03;100.00
37238;BME280;23129;49.662;8.448;2023-10-08T10:04:24;101614.03;;;20.23;100.00
37238;BME280;23129;49.662;8.448;2023-10-08T10:06:55;101611.38;;;20.40;100.00
37238;BME280;23129;49.662;8.448;2023-10-08T10:09:26;101604.44;;;20.55;100.00
37238;BME280;23129;49.662;8.448;2023-10-08T10:11:55;101604.66;;;20.68;100.00
37238;BME280;23129;49.662;8.448;2023-10-08T10:14:25;101609.19;;;20.83;100.00
37238;BME280;23129;49.662;8.448;2023-10-08T10:17:12;101610.28;;;20.96;100.00
37238;BME280;23129;49.662;8.448;2023-10-08T10:20:00;101594.41;;;21.11;100.00
37238;BME280;23129;49.662;8.448;2023-10-08T10:22:35;101592.81;;;21.24;100.00
37238;BME280;23129;49.662;8.448;2023-10-08T10:25:05;101595.25;;;21.45;99.45
37238;BME280;23129;49.662;8.448;2023-10-08T10:27:42;101584.72;;;21.75;98.53
37238;BME280;23129;49.662;8.448;2023-10-08T10:30:34;101591.63;;;22.09;96.15
37238;BME280;23129;49.662;8.448;2023-10-08T10:33:02;101579.19;;;22.40;95.79
37238;BME280;23129;49.662;8.448;2023-10-08T10:35:36;101582.84;;;22.67;95.05
37238;BME280;23129;49.662;8.448;2023-10-08T10:38:09;101575.34;;;22.88;93.47
37238;BME280;23129;49.662;8.448;2023-10-08T10:40:41;101572.78;;;23.15;92.96
37238;BME280;23129;49.662;8.448;2023-10-08T10:43:09;101571.47;;;23.37;92.49
37238;BME280;23129;49.662;8.448;2023-10-08T10:45:43;101571.41;;;23.65;91.60
37238;BME280;23129;49.662;8.448;2023-10-08T10:48:12;101574.44;;;23.88;88.86
37238;BME280;23129;49.662;8.448;2023-10-08T10:50:50;101579.59;;;24.31;88.41
37238;BME280;23129;49.662;8.448;2023-10-08T10:53:36;101587.75;;;24.69;86.29
37238;BME280;23129;49.662;8.448;2023-10-08T10:56:13;101592.03;;;24.97;85.90
37238;BME280;23129;49.662;8.448;2023-10-08T10:58:47;101578.00;;;25.19;85.37
37238;BME280;23129;49.662;8.448;2023-10-08T11:01:25;101581.63;;;25.44;84.33
37238;BME280;23129;49.662;8.448;2023-10-08T11:03:57;101582.47;;;25.44;84.16
37238;BME280;23129;49.662;8.448;2023-10-08T11:06:27;101585.56;;;25.51;84.38
37238;BME280;23129;49.662;8.448;2023-10-08T11:08:57;101582.44;;;25.57;84.22
37238;BME280;23129;49.662;8.448;2023-10-08T11:11:27;101578.91;;;25.81;84.24
37238;BME280;23129;49.662;8.448;2023-10-08T11:13:57;101581.50;;;26.30;81.50
37238;BME280;23129;49.662;8.448;2023-10-08T11:16:36;101575.25;;;26.65;79.08
37238;BME280;23129;49.662;8.448;2023-10-08T11:19:08;101586.50;;;27.17;78.39
37238;BME280;23129;49.662;8.448;2023-10-08T11:21:49;101584.47;;;27.64;75.74
37238;BME280;23129;49.662;8.448;2023-10-08T11:24:29;101571.53;;;28.01;74.75
37238;BME280;23129;49.662;8.448;2023-10-08T11:27:02;101572.53;;;28.53;73.97
37238;BME280;23129;49.662;8.448;2023-10-08T11:29:45;101582.22;;;29.07;70.91
37238;BME280;23129;49.662;8.448;2023-10-08T11:32:16;101584.28;;;29.15;69.87
37238;BME280;23129;49.662;8.448;2023-10-08T11:34:46;101592.03;;;29.29;70.47
37238;BME280;23129;49.662;8.448;2023-10-08T11:37:27;101585.53;;;29.51;69.37
37238;BME280;23129;49.662;8.448;2023-10-08T11:39:57;101593.59;;;29.82;69.48
37238;BME280;23129;49.662;8.448;2023-10-08T11:42:27;101597.63;;;30.17;68.98
37238;BME280;23129;49.662;8.448;2023-10-08T11:45:11;101598.78;;;30.34;70.68
37238;BME280;23129;49.662;8.448;2023-10-08T11:47:53;101599.75;;;30.81;67.96
37238;BME280;23129;49.662;8.448;2023-10-08T11:50:25;101591.44;;;31.20;66.87
37238;BME280;23129;49.662;8.448;2023-10-08T11:52:59;101593.72;;;31.34;68.21
37238;BME280;23129;49.662;8.448;2023-10-08T11:55:33;101583.31;;;31.57;65.80
37238;BME280;23129;49.662;8.448;2023-10-08T11:58:04;101584.72;;;31.79;64.79
37238;BME280;23129;49.662;8.448;2023-10-08T12:00:39;101574.94;;;32.14;63.67
37238;BME280;23129;49.662;8.448;2023-10-08T12:03:15;101575.28;;;32.37;62.23
37238;BME280;23129;49.662;8.448;2023-10-08T12:05:48;101574.00;;;32.67;61.15
37238;BME280;23129;49.662;8.448;2023-10-08T12:08:20;101568.94;;;32.72;60.35
37238;BME280;23129;49.662;8.448;2023-10-08T12:10:51;101572.16;;;32.68;59.49
37238;BME280;23129;49.662;8.448;2023-10-08T12:13:22;101561.84;;;32.80;59.06
37238;BME280;23129;49.662;8.448;2023-10-08T12:15:53;101561.16;;;32.78;57.65
37238;BME280;23129;49.662;8.448;2023-10-08T12:18:33;101555.91;;;32.84;57.50
37238;BME280;23129;49.662;8.448;2023-10-08T12:21:08;101559.50;;;32.85;56.46
37238;BME280;23129;49.662;8.448;2023-10-08T12:23:39;101554.78;;;32.95;56.86
37238;BME280;23129;49.662;8.448;2023-10-08T12:26:10;101551.88;;;32.88;55.66
37238;BME280;23129;49.662;8.448;2023-10-08T12:28:43;101544.16;;;32.76;56.64
37238;BME280;23129;49.662;8.448;2023-10-08T12:31:13;101543.56;;;32.90;55.87
37238;BME280;23129;49.662;8.448;2023-10-08T12:33:43;101550.16;;;33.13;54.54
37238;BME280;23129;49.662;8.448;2023-10-08T12:36:12;101551.25;;;33.37;53.73
37238;BME280;23129;49.662;8.448;2023-10-08T12:38:42;101554.75;;;33.55;52.82
37238;BME280;23129;49.662;8.448;2023-10-08T12:41:12;101546.94;;;33.77;51.67
37238;BME280;23129;49.662;8.448;2023-10-08T12:43:42;101547.66;;;33.79;50.93
37238;BME280;23129;49.662;8.448;2023-10-08T12:46:13;101547.81;;;33.69;50.25
37238;BME280;23129;49.662;8.448;2023-10-08T12:48:46;101544.50;;;33.49;50.33
37238;BME280;23129;49.662;8.448;2023-10-08T12:51:20;101535.94;;;33.28;49.70
37238;BME280;23129;49.662;8.448;2023-10-08T12:53:52;101539.09;;;32.81;49.30
37238;BME280;23129;49.662;8.448;2023-10-08T12:56:33;101537.28;;;32.37;49.53
37238;BME280;23129;49.662;8.448;2023-10-08T12:59:08;101537.22;;;31.75;51.24
37238;BME280;23129;49.662;8.448;2023-10-08T13:01:47;101534.69;;;31.46;51.75
37238;BME280;23129;49.662;8.448;2023-10-08T13:04:19;101525.00;;;31.61;51.08
37238;BME280;23129;49.662;8.448;2023-10-08T13:06:55;101533.13;;;32.07;49.99
37238;BME280;23129;49.662;8.448;2023-10-08T13:09:24;101534.16;;;32.50;48.52
37238;BME280;23129;49.662;8.448;2023-10-08T13:11:55;101532.94;;;32.70;46.58
37238;BME280;23129;49.662;8.448;2023-10-08T13:14:27;101532.84;;;32.18;46.61
37238;BME280;23129;49.662;8.448;2023-10-08T13:16:56;101515.50;;;31.75;47.00